Time;durP1;ratioP1;P1;durP2;ratioP2;P2;SDS_P1;SDS_P2;PMS_P1;PMS_P2;Temp;Humidity;BMP_temperature;BMP_pressure;BME280_temperature;BME280_humidity;BME280_pressure;Samples;Min_cycle;Max_cycle;Signal;HPM_P1;HPM_P2
2022/10/15 00:01:52;;;;;;;1.87;1.77;;;21.70;44.30;;;;;;5017020;28;20218;-64
2022/10/15 00:04:17;;;;;;;1.80;1.70;;;21.70;44.20;;;;;;5017342;28;21175;-64
2022/10/15 00:06:43;;;;;;;2.03;1.93;;;21.70;44.20;;;;;;5013833;28;20225;-63
2022/10/15 00:09:08;;;;;;;1.93;1.70;;;21.70;44.20;;;;;;4989224;28;20226;-63
2022/10/15 00:11:34;;;;;;;2.73;1.70;;;21.70;44.20;;;;;;5011526;28;20259;-63
2022/10/15 00:14:00;;;;;;;1.90;1.80;;;21.60;44.10;;;;;;5012924;28;20291;-64
2022/10/15 00:16:27;;;;;;;1.80;1.70;;;21.60;44.10;;;;;;5018830;28;20858;-64
2022/10/15 00:18:56;;;;;;;1.90;1.80;;;21.60;44.10;;;;;;5023435;28;20227;-63
2022/10/15 00:21:21;;;;;;;1.80;1.70;;;21.70;44.20;;;;;;5022654;28;20448;-63
2022/10/15 00:23:48;;;;;;;2.07;1.97;;;21.60;44.10;;;;;;5014158;28;20948;-64
2022/10/15 00:26:39;;;;;;;1.87;1.77;;;21.60;44.10;;;;;;4996996;28;20233;-65
2022/10/15 00:29:05;;;;;;;3.50;1.90;;;21.60;44.10;;;;;;5010591;28;20432;-63
2022/10/15 00:31:31;;;;;;;1.90;1.80;;;21.60;44.10;;;;;;5011820;28;20468;-63
2022/10/15 00:33:59;;;;;;;1.80;1.70;;;21.60;44.20;;;;;;5010716;28;20679;-64
2022/10/15 00:36:35;;;;;;;4.53;2.10;;;21.70;44.30;;;;;;5010363;28;20445;-63
2022/10/15 00:39:02;;;;;;;1.77;1.67;;;21.60;44.20;;;;;;5013595;28;21075;-63
2022/10/15 00:41:38;;;;;;;2.53;1.90;;;21.60;44.20;;;;;;5014122;28;21308;-63
2022/10/15 00:44:23;;;;;;;2.20;1.83;;;21.60;44.10;;;;;;5008925;28;20560;-64
2022/10/15 00:46:56;;;;;;;1.80;1.70;;;21.60;44.20;;;;;;5015695;28;20473;-63
2022/10/15 00:49:30;;;;;;;2.30;2.10;;;21.60;44.20;;;;;;5011788;28;20452;-63
2022/10/15 00:52:00;;;;;;;1.90;1.80;;;21.60;44.20;;;;;;5008309;28;20452;-66
2022/10/15 00:54:30;;;;;;;1.80;1.70;;;21.60;44.30;;;;;;5012957;28;20452;-64
2022/10/15 00:56:56;;;;;;;1.60;1.50;;;21.60;44.30;;;;;;5009337;28;20815;-65
2022/10/15 00:59:25;;;;;;;1.80;1.70;;;21.60;44.20;;;;;;5018139;28;20456;-63
2022/10/15 01:01:51;;;;;;;2.10;2.00;;;21.60;44.20;;;;;;5005695;28;20468;-64
2022/10/15 01:04:17;;;;;;;2.00;1.90;;;21.60;44.20;;;;;;5014980;28;20475;-64
2022/10/15 01:06:44;;;;;;;3.47;1.90;;;21.60;45.00;;;;;;5015247;28;20455;-64
2022/10/15 01:09:10;;;;;;;1.60;1.50;;;21.60;44.20;;;;;;5006706;28;20460;-64
2022/10/15 01:11:45;;;;;;;1.77;1.67;;;21.60;44.30;;;;;;5011863;28;20456;-63
2022/10/15 01:14:46;;;;;;;2.37;2.27;;;21.60;44.20;;;;;;5015325;28;20467;-63
2022/10/15 01:17:39;;;;;;;1.80;1.70;;;21.60;44.20;;;;;;5015899;28;20460;-63
2022/10/15 01:20:33;;;;;;;1.60;1.50;;;21.60;44.20;;;;;;4997303;28;20475;-63
2022/10/15 01:23:05;;;;;;;1.67;1.57;;;21.60;44.20;;;;;;4984479;28;20477;-64
2022/10/15 01:26:00;;;;;;;2.30;2.10;;;21.60;44.40;;;;;;5011875;28;20526;-63
2022/10/15 01:28:54;;;;;;;1.80;1.70;;;21.60;44.20;;;;;;5018087;28;20539;-64
2022/10/15 01:31:40;;;;;;;1.77;1.67;;;21.60;44.30;;;;;;5014760;28;20546;-64
2022/10/15 01:34:39;;;;;;;1.90;1.80;;;21.60;44.30;;;;;;5013293;28;20521;-63
2022/10/15 01:37:20;;;;;;;1.70;1.60;;;21.60;44.30;;;;;;5014970;28;20599;-65
2022/10/15 01:40:00;;;;;;;1.97;1.87;;;21.60;43.80;;;;;;5017546;28;20590;-65
2022/10/15 01:42:38;;;;;;;1.70;1.60;;;21.60;44.30;;;;;;5011350;28;20495;-65
2022/10/15 01:45:18;;;;;;;1.77;1.67;;;21.60;44.30;;;;;;5009270;28;20973;-65
2022/10/15 01:47:57;;;;;;;2.00;1.90;;;21.60;44.30;;;;;;5007617;28;20475;-66
2022/10/15 01:50:29;;;;;;;1.80;1.70;;;21.60;44.30;;;;;;5005867;28;21871;-62
2022/10/15 01:52:55;;;;;;;1.80;1.70;;;21.60;44.20;;;;;;5009921;28;20891;-66
2022/10/15 01:55:23;;;;;;;3.00;1.43;;;21.60;44.20;;;;;;5007232;28;21240;-65
2022/10/15 01:57:49;;;;;;;1.80;1.70;;;21.60;44.00;;;;;;5012840;28;20454;-66
2022/10/15 02:00:16;;;;;;;2.00;1.90;;;21.60;43.90;;;;;;5007181;28;20461;-66
2022/10/15 02:02:42;;;;;;;2.00;1.90;;;21.60;43.70;;;;;;5009833;28;20465;-63
2022/10/15 02:05:20;;;;;;;1.60;1.50;;;21.60;43.70;;;;;;5009922;28;20942;-63
2022/10/15 02:07:56;;;;;;;1.60;1.50;;;21.60;43.60;;;;;;5011289;28;20528;-65
2022/10/15 02:10:36;;;;;;;2.00;1.90;;;21.60;43.50;;;;;;5010270;28;20745;-63
2022/10/15 02:13:17;;;;;;;2.07;1.97;;;21.60;43.60;;;;;;5013492;28;20469;-65
2022/10/15 02:16:13;;;;;;;2.50;1.70;;;21.60;43.70;;;;;;4998306;28;20510;-64
2022/10/15 02:18:44;;;;;;;1.80;1.70;;;21.70;43.70;;;;;;5008004;28;20469;-64
2022/10/15 02:21:25;;;;;;;2.00;1.83;;;21.60;43.60;;;;;;5010710;28;20805;-63
2022/10/15 02:23:58;;;;;;;1.60;1.50;;;21.60;43.60;;;;;;5006687;28;20867;-64
2022/10/15 02:26:26;;;;;;;1.90;1.80;;;21.70;43.80;;;;;;5013451;28;20456;-63
2022/10/15 02:28:56;;;;;;;2.00;1.90;;;21.60;43.60;;;;;;5013009;28;20465;-63
2022/10/15 02:31:23;;;;;;;1.80;1.70;;;21.70;43.70;;;;;;5012322;28;20805;-63
2022/10/15 02:33:52;;;;;;;1.80;1.70;;;21.60;43.60;;;;;;5017280;28;20459;-63
2022/10/15 02:36:18;;;;;;;1.70;1.60;;;21.60;43.60;;;;;;5019033;28;20452;-64
2022/10/15 02:38:46;;;;;;;1.57;1.47;;;21.60;43.60;;;;;;5014340;28;20476;-63
2022/10/15 02:41:13;;;;;;;1.90;1.80;;;21.60;43.70;;;;;;5016394;28;20951;-64
2022/10/15 02:43:39;;;;;;;1.77;1.67;;;21.60;43.80;;;;;;5013892;28;20543;-63
2022/10/15 02:46:06;;;;;;;2.00;1.90;;;21.60;43.80;;;;;;5011398;28;20464;-64
2022/10/15 02:48:32;;;;;;;1.80;1.70;;;21.60;43.90;;;;;;5009013;28;20472;-64
2022/10/15 02:50:57;;;;;;;1.60;1.50;;;21.60;43.90;;;;;;5016424;28;20944;-63
2022/10/15 02:53:23;;;;;;;1.83;1.73;;;21.60;44.00;;;;;;5016777;28;20230;-63
2022/10/15 02:55:48;;;;;;;1.67;1.57;;;21.60;44.00;;;;;;5011998;28;20224;-64
2022/10/15 02:58:14;;;;;;;1.97;1.87;;;21.60;44.10;;;;;;5004700;28;20291;-66
2022/10/15 03:00:39;;;;;;;1.57;1.47;;;21.60;44.00;;;;;;5010629;28;20262;-67
2022/10/15 03:03:05;;;;;;;1.60;1.50;;;21.60;44.10;;;;;;5005835;28;20231;-66
2022/10/15 03:05:30;;;;;;;1.57;1.47;;;21.60;44.10;;;;;;5014707;28;20252;-65
2022/10/15 03:07:58;;;;;;;1.60;1.50;;;21.60;44.10;;;;;;5008815;28;20210;-65
2022/10/15 03:10:24;;;;;;;1.70;1.60;;;21.60;44.10;;;;;;5019798;28;20693;-65
2022/10/15 03:12:50;;;;;;;2.10;1.67;;;21.60;44.10;;;;;;5016516;28;20589;-64
2022/10/15 03:15:15;;;;;;;1.60;1.50;;;21.60;44.10;;;;;;5019585;28;20521;-65
2022/10/15 03:17:41;;;;;;;1.70;1.60;;;21.60;44.10;;;;;;5015428;28;20282;-64
2022/10/15 03:20:07;;;;;;;1.60;1.50;;;21.60;44.10;;;;;;5010110;28;20222;-66
2022/10/15 03:22:33;;;;;;;1.60;1.50;;;21.60;44.20;;;;;;5019779;28;20219;-64
2022/10/15 03:24:58;;;;;;;1.60;1.50;;;21.60;44.20;;;;;;5014351;28;20296;-63
2022/10/15 03:27:24;;;;;;;1.70;1.60;;;21.60;44.20;;;;;;5020000;28;20227;-63
2022/10/15 03:29:49;;;;;;;1.70;1.60;;;21.60;44.10;;;;;;5016404;28;20241;-64
2022/10/15 03:32:15;;;;;;;1.60;1.50;;;21.60;44.20;;;;;;5012524;28;20220;-63
2022/10/15 03:34:40;;;;;;;1.70;1.60;;;21.60;44.20;;;;;;5019469;28;20649;-63
2022/10/15 03:37:06;;;;;;;1.80;1.70;;;21.60;44.10;;;;;;5014180;28;20257;-65
2022/10/15 03:39:32;;;;;;;1.90;1.80;;;21.60;44.20;;;;;;5016610;28;20230;-63
2022/10/15 03:41:57;;;;;;;1.60;1.50;;;21.60;44.10;;;;;;5013803;28;20302;-63
2022/10/15 03:44:23;;;;;;;1.50;1.40;;;21.60;44.10;;;;;;5013875;28;20235;-65
2022/10/15 03:46:48;;;;;;;1.70;1.60;;;21.60;44.10;;;;;;5015638;28;21258;-64
2022/10/15 03:49:14;;;;;;;1.67;1.57;;;21.60;44.10;;;;;;5016095;28;20277;-64
2022/10/15 03:51:39;;;;;;;1.70;1.60;;;21.60;44.90;;;;;;5011102;28;20219;-63
2022/10/15 03:54:05;;;;;;;1.80;1.37;;;21.60;44.20;;;;;;5014120;28;20226;-64
2022/10/15 03:56:30;;;;;;;1.47;1.37;;;21.60;44.20;;;;;;5015728;28;20215;-65
2022/10/15 03:58:56;;;;;;;1.70;1.60;;;21.60;44.20;;;;;;5018242;28;20373;-65
2022/10/15 04:01:21;;;;;;;1.60;1.50;;;21.60;44.20;;;;;;4996842;28;20222;-65
2022/10/15 04:03:50;;;;;;;1.60;1.50;;;21.50;44.10;;;;;;5018492;28;20230;-64
2022/10/15 04:06:16;;;;;;;1.77;1.67;;;21.60;44.20;;;;;;5016013;28;20611;-65
2022/10/15 04:08:41;;;;;;;1.70;1.60;;;21.60;44.20;;;;;;5017091;28;20471;-64
2022/10/15 04:11:07;;;;;;;1.57;1.47;;;21.60;44.20;;;;;;5018369;28;20322;-63
2022/10/15 04:13:32;;;;;;;1.60;1.50;;;21.60;44.20;;;;;;5017794;28;20223;-64
2022/10/15 04:15:57;;;;;;;1.37;1.27;;;21.50;44.20;;;;;;5010124;28;20221;-63
2022/10/15 04:18:23;;;;;;;1.57;1.47;;;21.60;44.20;;;;;;5018701;28;20575;-63
2022/10/15 04:20:49;;;;;;;1.90;1.80;;;21.60;44.20;;;;;;5010575;28;20227;-64
2022/10/15 04:23:15;;;;;;;1.60;1.50;;;21.60;44.60;;;;;;5017660;28;20354;-64
2022/10/15 04:25:41;;;;;;;1.33;1.23;;;21.50;44.20;;;;;;5018877;28;20234;-63
2022/10/15 04:28:07;;;;;;;1.60;1.50;;;21.50;44.20;;;;;;5021364;28;20456;-63
2022/10/15 04:30:32;;;;;;;1.83;1.73;;;21.60;44.20;;;;;;5019600;28;20448;-63
2022/10/15 04:32:58;;;;;;;1.50;1.40;;;21.60;44.20;;;;;;5019565;28;20218;-65
2022/10/15 04:35:23;;;;;;;1.70;1.60;;;21.60;44.20;;;;;;5018182;28;20333;-64
2022/10/15 04:37:49;;;;;;;1.63;1.53;;;21.60;44.20;;;;;;5018510;28;20218;-63
2022/10/15 04:40:14;;;;;;;1.40;1.30;;;21.50;44.20;;;;;;5018552;28;20246;-65
2022/10/15 04:42:40;;;;;;;1.60;1.50;;;21.50;44.20;;;;;;5015722;28;20309;-65
2022/10/15 04:45:06;;;;;;;1.50;1.40;;;21.50;44.20;;;;;;5009700;28;20223;-63
2022/10/15 04:47:32;;;;;;;1.50;1.40;;;21.50;44.20;;;;;;5017079;28;20218;-63
2022/10/15 04:49:57;;;;;;;2.37;2.27;;;21.50;44.20;;;;;;5014246;28;20487;-63
2022/10/15 04:52:23;;;;;;;1.50;1.40;;;21.60;44.20;;;;;;4992308;28;20234;-64
2022/10/15 04:54:49;;;;;;;1.40;1.30;;;21.50;44.10;;;;;;5021138;28;20230;-64
2022/10/15 04:57:15;;;;;;;1.60;1.50;;;21.60;44.20;;;;;;5016606;28;20233;-64
2022/10/15 04:59:42;;;;;;;1.43;1.30;;;21.60;44.10;;;;;;5018142;28;20222;-63
2022/10/15 05:02:08;;;;;;;1.60;1.50;;;21.60;44.10;;;;;;4994611;28;21139;-65
2022/10/15 05:04:33;;;;;;;2.03;1.93;;;21.60;44.20;;;;;;5013802;28;20464;-63
2022/10/15 05:06:59;;;;;;;1.40;1.30;;;21.60;44.10;;;;;;5008611;28;20215;-66
2022/10/15 05:09:24;;;;;;;1.73;1.63;;;21.60;44.10;;;;;;5010956;28;20681;-65
2022/10/15 05:11:50;;;;;;;1.27;1.17;;;21.60;44.10;;;;;;5010336;28;20713;-65
2022/10/15 05:14:15;;;;;;;1.50;1.40;;;21.60;44.10;;;;;;5008974;28;20274;-61
2022/10/15 05:16:41;;;;;;;1.40;1.30;;;21.60;44.10;;;;;;5014317;28;20211;-63
2022/10/15 05:19:07;;;;;;;1.67;1.57;;;21.60;44.10;;;;;;5018118;28;20597;-64
2022/10/15 05:21:34;;;;;;;1.70;1.60;;;21.60;44.10;;;;;;5018802;28;20226;-63
2022/10/15 05:24:00;;;;;;;1.60;1.50;;;21.60;44.10;;;;;;5009101;28;20242;-63
2022/10/15 05:26:27;;;;;;;1.47;1.37;;;21.60;44.10;;;;;;5004994;28;20455;-63
2022/10/15 05:28:55;;;;;;;1.30;1.20;;;21.60;44.10;;;;;;5009523;28;21026;-64
2022/10/15 05:31:22;;;;;;;1.67;1.57;;;21.60;44.00;;;;;;5010234;28;20559;-63
2022/10/15 05:33:49;;;;;;;1.37;1.27;;;21.60;44.00;;;;;;5012270;28;20468;-64
2022/10/15 05:36:21;;;;;;;1.53;1.43;;;21.60;44.00;;;;;;5014371;28;20483;-64
2022/10/15 05:38:48;;;;;;;2.43;1.60;;;21.60;44.00;;;;;;5006838;28;20496;-63
2022/10/15 05:41:14;;;;;;;1.80;1.70;;;21.60;44.00;;;;;;5013001;28;20569;-64
2022/10/15 05:43:40;;;;;;;2.33;2.23;;;21.60;44.00;;;;;;5008406;28;20487;-62
2022/10/15 05:46:06;;;;;;;1.60;1.40;;;21.60;44.00;;;;;;5004782;28;21054;-63
2022/10/15 05:48:32;;;;;;;1.70;1.60;;;21.60;44.00;;;;;;5006660;28;20219;-63
2022/10/15 05:51:05;;;;;;;1.57;1.47;;;21.60;44.00;;;;;;5010028;28;20218;-62
2022/10/15 05:53:31;;;;;;;2.03;1.93;;;21.60;44.00;;;;;;5015811;28;20493;-65
2022/10/15 05:55:57;;;;;;;1.37;1.27;;;21.60;44.00;;;;;;5012364;28;20903;-65
2022/10/15 05:58:24;;;;;;;1.60;1.50;;;21.60;44.10;;;;;;5008720;28;20227;-63
2022/10/15 06:00:54;;;;;;;1.57;1.47;;;21.60;44.00;;;;;;5008101;28;20514;-65
2022/10/15 06:03:19;;;;;;;2.40;1.70;;;21.60;44.00;;;;;;5010391;28;20478;-63
2022/10/15 06:05:45;;;;;;;1.50;1.40;;;21.60;44.00;;;;;;5011214;28;20455;-64
2022/10/15 06:08:10;;;;;;;1.80;1.50;;;21.60;44.00;;;;;;5012380;28;20215;-64
2022/10/15 06:10:36;;;;;;;1.30;1.20;;;21.60;44.00;;;;;;5011057;28;20225;-63
2022/10/15 06:13:03;;;;;;;1.90;1.80;;;21.60;44.00;;;;;;5009335;28;20358;-63
2022/10/15 06:15:28;;;;;;;1.60;1.50;;;21.60;44.00;;;;;;5004245;28;20457;-63
2022/10/15 06:17:54;;;;;;;1.60;1.50;;;21.60;44.00;;;;;;5005506;28;20569;-64
2022/10/15 06:20:20;;;;;;;1.97;1.47;;;21.60;44.00;;;;;;4990627;28;20210;-62
2022/10/15 06:22:45;;;;;;;1.57;1.47;;;21.60;44.00;;;;;;5003874;28;20277;-64
2022/10/15 06:25:11;;;;;;;1.47;1.37;;;21.60;44.00;;;;;;4998252;28;20224;-66
2022/10/15 06:27:36;;;;;;;1.80;1.70;;;21.60;44.00;;;;;;5009791;28;20238;-66
2022/10/15 06:30:02;;;;;;;1.40;1.30;;;21.60;44.00;;;;;;5009163;28;20281;-64
2022/10/15 06:32:28;;;;;;;2.20;1.70;;;21.60;44.00;;;;;;5008882;28;20277;-64
2022/10/15 06:34:53;;;;;;;1.63;1.53;;;21.60;44.00;;;;;;5012614;28;20843;-64
2022/10/15 06:37:19;;;;;;;1.53;1.43;;;21.60;44.00;;;;;;5005870;28;20698;-64
2022/10/15 06:39:45;;;;;;;2.13;1.70;;;21.60;44.00;;;;;;5005052;28;20219;-63
2022/10/15 06:42:11;;;;;;;1.70;1.60;;;21.60;44.00;;;;;;5006955;28;20238;-64
2022/10/15 06:44:37;;;;;;;1.80;1.70;;;21.60;43.90;;;;;;5006007;28;20948;-63
2022/10/15 06:47:03;;;;;;;1.50;1.40;;;21.70;44.00;;;;;;5014296;28;20212;-64
2022/10/15 06:49:28;;;;;;;1.90;1.80;;;21.70;44.10;;;;;;5007394;28;20225;-63
2022/10/15 06:51:54;;;;;;;2.00;1.90;;;21.70;44.10;;;;;;5012507;28;20364;-63
2022/10/15 06:54:19;;;;;;;1.80;1.70;;;21.60;44.00;;;;;;5015234;28;20312;-63
2022/10/15 06:56:45;;;;;;;1.63;1.53;;;21.60;44.00;;;;;;5014083;28;20211;-63
2022/10/15 06:59:10;;;;;;;1.60;1.50;;;21.70;44.00;;;;;;5006965;28;20222;-67
2022/10/15 07:01:36;;;;;;;1.57;1.47;;;21.60;44.70;;;;;;5011029;28;20241;-63
2022/10/15 07:04:01;;;;;;;1.90;1.80;;;21.60;43.90;;;;;;5003779;28;20277;-62
2022/10/15 07:06:27;;;;;;;2.07;1.70;;;21.60;43.90;;;;;;5014219;28;20222;-64
2022/10/15 07:08:52;;;;;;;1.90;1.80;;;21.60;44.00;;;;;;5013912;28;20285;-65
2022/10/15 07:11:18;;;;;;;2.00;1.90;;;21.70;44.10;;;;;;5002508;28;20273;-65
2022/10/15 07:13:43;;;;;;;2.90;1.80;;;21.60;43.90;;;;;;5013245;28;20226;-65
2022/10/15 07:16:11;;;;;;;1.70;1.60;;;21.70;44.10;;;;;;5015458;28;20222;-64
2022/10/15 07:18:37;;;;;;;7.13;1.60;;;21.60;44.00;;;;;;5014382;28;20231;-64
2022/10/15 07:21:05;;;;;;;2.03;1.90;;;21.60;43.90;;;;;;5011251;28;20510;-66
2022/10/15 07:23:31;;;;;;;2.83;2.10;;;21.60;44.00;;;;;;5008532;28;20509;-65
2022/10/15 07:25:58;;;;;;;2.07;1.97;;;21.60;44.00;;;;;;4989605;28;21049;-66
2022/10/15 07:28:24;;;;;;;2.33;2.23;;;21.60;44.00;;;;;;5001079;28;20223;-66
2022/10/15 07:30:50;;;;;;;5.33;1.60;;;21.60;43.90;;;;;;5007916;28;21033;-65
2022/10/15 07:33:16;;;;;;;2.00;1.90;;;21.60;44.00;;;;;;5001955;28;20227;-66
2022/10/15 07:35:41;;;;;;;2.00;1.90;;;21.60;44.00;;;;;;5012543;28;20230;-66
2022/10/15 07:38:07;;;;;;;2.20;2.10;;;21.60;44.00;;;;;;5013618;28;20510;-66
2022/10/15 07:40:32;;;;;;;2.13;1.80;;;21.60;44.00;;;;;;5016676;28;20250;-66
2022/10/15 07:42:59;;;;;;;1.83;1.73;;;21.70;44.10;;;;;;5017275;28;20300;-65
2022/10/15 07:45:25;;;;;;;1.70;1.60;;;21.70;44.90;;;;;;5014988;28;20231;-65
2022/10/15 07:47:52;;;;;;;2.77;2.10;;;21.70;44.20;;;;;;5013173;28;20472;-65
2022/10/15 07:50:18;;;;;;;3.23;2.33;;;21.70;44.10;;;;;;5009666;28;20452;-66
2022/10/15 07:52:44;;;;;;;1.70;1.60;;;21.70;44.10;;;;;;5014997;28;20470;-66
2022/10/15 07:55:10;;;;;;;2.03;1.90;;;21.70;44.10;;;;;;5019135;28;20439;-65
2022/10/15 07:57:36;;;;;;;1.80;1.70;;;21.70;44.10;;;;;;5018773;28;20227;-65
2022/10/15 08:00:02;;;;;;;2.00;1.80;;;21.70;44.10;;;;;;5012799;28;20222;-64
2022/10/15 08:02:28;;;;;;;2.70;1.63;;;21.60;44.00;;;;;;5017673;28;20226;-64
2022/10/15 08:04:53;;;;;;;2.50;1.60;;;21.70;44.10;;;;;;5019870;28;20818;-64
2022/10/15 08:07:19;;;;;;;2.80;2.20;;;21.70;44.10;;;;;;5014841;28;20636;-65
2022/10/15 08:09:44;;;;;;;2.60;1.93;;;21.60;44.00;;;;;;5017276;28;20678;-65
2022/10/15 08:12:10;;;;;;;1.97;1.87;;;21.60;44.00;;;;;;5007175;28;20219;-67
2022/10/15 08:14:36;;;;;;;2.67;1.90;;;21.70;44.20;;;;;;5017241;28;20707;-65
2022/10/15 08:17:03;;;;;;;2.07;1.87;;;21.70;44.20;;;;;;5017065;28;20242;-65
2022/10/15 08:19:28;;;;;;;1.63;1.53;;;21.70;44.20;;;;;;5018427;28;20265;-64
2022/10/15 08:21:54;;;;;;;3.73;1.87;;;21.70;44.30;;;;;;5015601;28;22011;-64
2022/10/15 08:24:20;;;;;;;1.83;1.73;;;21.70;44.20;;;;;;5012280;28;20246;-65
2022/10/15 08:26:45;;;;;;;1.90;1.80;;;21.70;44.20;;;;;;5015234;28;20264;-65
2022/10/15 08:29:11;;;;;;;3.23;1.67;;;21.70;44.20;;;;;;5013522;28;20219;-64
2022/10/15 08:31:38;;;;;;;1.90;1.70;;;21.60;44.10;;;;;;5010341;28;20716;-65
2022/10/15 08:34:04;;;;;;;2.03;1.83;;;21.60;44.10;;;;;;5012147;28;20463;-67
2022/10/15 08:36:30;;;;;;;1.60;1.50;;;21.60;44.20;;;;;;5001012;28;20473;-65
2022/10/15 08:38:56;;;;;;;4.03;1.80;;;21.60;44.10;;;;;;5001301;28;20800;-63
2022/10/15 08:41:31;;;;;;;1.80;1.53;;;21.70;44.20;;;;;;4999090;28;20192;-61
2022/10/15 08:43:58;;;;;;;1.97;1.77;;;21.70;44.20;;;;;;4997946;28;20206;-60
2022/10/15 08:46:47;;;;;;;111.00;22.10;;;21.70;44.20;;;;;;5001807;28;21442;-62
2022/10/15 08:49:49;;;;;;;97.93;18.70;;;21.70;44.10;;;;;;4998043;28;20576;-62
2022/10/15 08:52:53;;;;;;;64.07;13.87;;;21.80;44.10;;;;;;5000945;28;20174;-63
2022/10/15 08:55:21;;;;;;;61.80;12.80;;;21.80;43.90;;;;;;4920232;29;20447;-65
2022/10/15 08:58:12;;;;;;;38.53;11.20;;;21.80;44.00;;;;;;4911929;29;21868;-63
2022/10/15 09:01:00;;;;;;;41.47;10.63;;;21.80;44.00;;;;;;4976586;28;20453;-61
2022/10/15 09:03:56;;;;;;;50.70;13.47;;;21.90;44.10;;;;;;4998963;28;20482;-63
2022/10/15 09:06:31;;;;;;;29.77;11.23;;;21.90;44.10;;;;;;4999915;28;20514;-61
2022/10/15 09:09:11;;;;;;;39.60;12.50;;;21.90;44.10;;;;;;4995355;28;20535;-62
2022/10/15 09:12:16;;;;;;;56.10;15.47;;;21.90;44.10;;;;;;5001627;28;20563;-64
2022/10/15 09:14:44;;;;;;;38.20;10.60;;;21.90;44.20;;;;;;4981345;28;20447;-62
2022/10/15 09:17:22;;;;;;;32.67;10.57;;;21.90;44.10;;;;;;5000700;28;22231;-61
2022/10/15 09:19:54;;;;;;;35.57;11.20;;;21.90;44.10;;;;;;5001244;28;20445;-64
2022/10/15 09:22:28;;;;;;;32.07;10.67;;;21.90;44.10;;;;;;5001596;28;20441;-61
2022/10/15 09:24:55;;;;;;;41.73;10.20;;;21.90;44.10;;;;;;5000165;28;20484;-61
2022/10/15 09:27:36;;;;;;;22.93;9.33;;;22.00;44.20;;;;;;5005318;28;20472;-60
2022/10/15 09:30:17;;;;;;;96.23;22.97;;;22.00;44.20;;;;;;4999591;28;20451;-62
2022/10/15 09:32:43;;;;;;;40.87;13.63;;;22.00;44.20;;;;;;5000619;28;20444;-62
2022/10/15 09:35:17;;;;;;;35.13;12.40;;;22.00;44.20;;;;;;4998449;28;20441;-62
2022/10/15 09:38:20;;;;;;;115.47;28.40;;;22.00;44.20;;;;;;4991736;28;20199;-65
2022/10/15 09:41:15;;;;;;;217.07;43.53;;;22.00;44.20;;;;;;4987349;28;20453;-62
2022/10/15 09:43:44;;;;;;;63.03;19.50;;;22.00;44.20;;;;;;5002234;28;20543;-62
2022/10/15 09:46:11;;;;;;;39.93;15.00;;;22.00;44.20;;;;;;4997652;28;20460;-61
2022/10/15 09:48:46;;;;;;;58.50;14.83;;;22.00;44.20;;;;;;4996875;28;20985;-62
2022/10/15 09:51:11;;;;;;;62.63;14.83;;;22.10;44.30;;;;;;5000512;28;20975;-61
2022/10/15 09:54:21;;;;;;;52.23;13.93;;;22.10;44.30;;;;;;4995639;28;20506;-64
2022/10/15 09:56:54;;;;;;;48.60;14.17;;;22.10;44.30;;;;;;4981310;28;20191;-64
2022/10/15 09:59:21;;;;;;;37.00;12.37;;;22.10;44.30;;;;;;4998999;28;20449;-65
2022/10/15 10:01:59;;;;;;;43.13;12.37;;;22.10;44.40;;;;;;4976501;28;20480;-61
2022/10/15 10:04:27;;;;;;;30.47;11.87;;;22.00;44.30;;;;;;5005448;28;20464;-61
2022/10/15 10:06:57;;;;;;;36.23;10.37;;;22.00;44.40;;;;;;5006320;28;21077;-62
2022/10/15 10:09:30;;;;;;;40.53;11.23;;;22.00;44.40;;;;;;5011905;28;20978;-61
2022/10/15 10:12:03;;;;;;;36.40;11.63;;;22.00;44.40;;;;;;5002225;28;20615;-62
2022/10/15 10:14:44;;;;;;;33.13;10.93;;;22.00;44.50;;;;;;5013522;28;20457;-63
2022/10/15 10:17:19;;;;;;;34.60;11.97;;;22.00;44.50;;;;;;5011765;28;20483;-62
2022/10/15 10:20:01;;;;;;;42.53;11.10;;;22.00;44.60;;;;;;4992168;28;21593;-63
2022/10/15 10:22:27;;;;;;;29.57;8.87;;;22.00;44.50;;;;;;5009241;28;20483;-65
2022/10/15 10:24:53;;;;;;;21.00;8.73;;;22.00;44.50;;;;;;5007369;28;20829;-63
2022/10/15 10:27:28;;;;;;;30.60;8.37;;;22.00;44.60;;;;;;5002262;28;20587;-63
2022/10/15 10:30:06;;;;;;;19.20;8.80;;;22.00;44.60;;;;;;5003810;28;20218;-63
2022/10/15 10:32:33;;;;;;;24.90;8.60;;;22.00;44.60;;;;;;5000451;28;20460;-63
2022/10/15 10:35:01;;;;;;;18.37;7.40;;;22.00;44.70;;;;;;4993406;28;20460;-62
2022/10/15 10:37:27;;;;;;;20.37;7.27;;;22.00;44.70;;;;;;5003632;28;20466;-65
2022/10/15 10:39:56;;;;;;;20.40;7.80;;;22.00;44.60;;;;;;5004184;28;20499;-63
2022/10/15 10:42:33;;;;;;;28.33;7.87;;;22.00;44.60;;;;;;5002759;28;20455;-62
2022/10/15 10:45:18;;;;;;;11.90;7.23;;;22.00;44.60;;;;;;5005724;28;20463;-63
2022/10/15 10:47:43;;;;;;;13.77;6.90;;;22.00;44.60;;;;;;4999975;28;20480;-62
2022/10/15 10:50:29;;;;;;;23.13;6.80;;;22.00;44.70;;;;;;4999321;28;20464;-61
2022/10/15 10:52:56;;;;;;;19.80;6.13;;;22.00;44.60;;;;;;5012219;28;20672;-62
2022/10/15 10:55:30;;;;;;;16.40;6.63;;;22.00;44.60;;;;;;5014711;28;21114;-62
2022/10/15 10:57:58;;;;;;;9.53;5.87;;;22.00;44.70;;;;;;5009741;28;20476;-61
2022/10/15 11:00:44;;;;;;;13.73;6.60;;;22.00;44.70;;;;;;5006971;28;20461;-61
2022/10/15 11:03:26;;;;;;;10.00;5.23;;;22.00;44.70;;;;;;5010383;28;20513;-61
2022/10/15 11:06:04;;;;;;;11.27;6.87;;;22.00;45.50;;;;;;5011403;28;20464;-62
2022/10/15 11:08:49;;;;;;;12.47;5.80;;;21.90;44.60;;;;;;5000789;28;21027;-62
2022/10/15 11:11:27;;;;;;;10.93;6.27;;;21.90;44.60;;;;;;5006839;28;21093;-62
2022/10/15 11:14:00;;;;;;;10.17;4.93;;;21.90;44.60;;;;;;5018220;28;20560;-63
2022/10/15 11:16:58;;;;;;;10.23;4.70;;;21.90;44.70;;;;;;5016742;28;20457;-61
2022/10/15 11:19:43;;;;;;;10.70;4.97;;;21.90;44.60;;;;;;5009774;28;20441;-63
2022/10/15 11:22:45;;;;;;;7.90;3.73;;;21.90;44.70;;;;;;5017137;28;20458;-62
2022/10/15 11:25:31;;;;;;;6.47;4.30;;;21.90;44.70;;;;;;5010855;28;20490;-61
2022/10/15 11:28:42;;;;;;;6.83;4.07;;;21.90;44.70;;;;;;5015051;28;20465;-61
2022/10/15 11:31:16;;;;;;;6.17;3.90;;;21.90;44.70;;;;;;4984803;28;20456;-63
2022/10/15 11:33:53;;;;;;;4.33;3.80;;;21.90;44.80;;;;;;5018032;28;21076;-61
2022/10/15 11:37:02;;;;;;;5.97;3.87;;;21.90;44.70;;;;;;5021230;28;20471;-63
2022/10/15 11:39:56;;;;;;;9.10;3.70;;;21.90;44.90;;;;;;4977853;28;20483;-61
2022/10/15 11:42:28;;;;;;;5.07;3.00;;;21.90;44.80;;;;;;4959291;28;20963;-63
2022/10/15 11:45:15;;;;;;;6.57;4.30;;;21.90;44.70;;;;;;5013901;28;20471;-63
2022/10/15 11:47:55;;;;;;;12.33;3.77;;;21.90;44.70;;;;;;5016391;28;20560;-63
2022/10/15 11:50:36;;;;;;;8.33;3.23;;;21.90;44.70;;;;;;5015561;28;20526;-62
2022/10/15 11:53:31;;;;;;;6.27;3.63;;;21.90;44.80;;;;;;5007189;28;20471;-62
2022/10/15 11:56:00;;;;;;;8.20;4.10;;;21.90;44.80;;;;;;5019311;28;20499;-61
2022/10/15 11:58:34;;;;;;;4.40;3.10;;;21.80;44.70;;;;;;5014972;28;20510;-61
2022/10/15 12:01:06;;;;;;;3.70;3.40;;;21.80;44.70;;;;;;5008865;28;20471;-62
2022/10/15 12:03:38;;;;;;;4.60;3.00;;;21.90;44.80;;;;;;5014986;28;20558;-62
2022/10/15 12:06:12;;;;;;;3.63;2.73;;;21.90;44.80;;;;;;5014415;28;20463;-61
2022/10/15 12:08:39;;;;;;;3.97;3.60;;;21.90;44.80;;;;;;5013474;28;20990;-63
2022/10/15 12:11:37;;;;;;;7.40;3.53;;;21.80;44.80;;;;;;5013179;28;20456;-61
2022/10/15 12:14:18;;;;;;;8.80;3.23;;;21.90;44.80;;;;;;5007320;28;20472;-67
2022/10/15 12:16:59;;;;;;;5.60;2.87;;;21.80;44.70;;;;;;5016173;28;20517;-67
2022/10/15 12:19:47;;;;;;;3.73;2.77;;;21.80;44.70;;;;;;5012103;28;20464;-62
2022/10/15 12:22:29;;;;;;;3.00;2.80;;;21.90;44.80;;;;;;5007249;28;20574;-62
2022/10/15 12:24:55;;;;;;;3.77;2.87;;;21.80;44.70;;;;;;5005528;28;20456;-63
2022/10/15 12:27:33;;;;;;;3.03;2.17;;;21.80;44.70;;;;;;5006898;28;20475;-63
2022/10/15 12:29:58;;;;;;;3.07;2.83;;;21.80;44.70;;;;;;5008065;28;20223;-61
2022/10/15 12:32:26;;;;;;;2.40;2.20;;;21.80;44.70;;;;;;5003438;28;20464;-64
2022/10/15 12:35:17;;;;;;;3.10;2.40;;;21.80;44.70;;;;;;5011579;28;20230;-65
2022/10/15 12:37:45;;;;;;;2.27;2.07;;;21.80;44.70;;;;;;5004878;28;20527;-63
2022/10/15 12:40:24;;;;;;;4.30;2.53;;;21.80;44.80;;;;;;5004331;28;20480;-62
2022/10/15 12:42:56;;;;;;;4.77;2.70;;;21.80;44.70;;;;;;5008406;28;20467;-63
2022/10/15 12:45:34;;;;;;;2.57;2.00;;;21.90;44.80;;;;;;5014125;28;21082;-62
2022/10/15 12:48:17;;;;;;;4.77;1.90;;;21.90;44.70;;;;;;4993613;28;20472;-63
2022/10/15 12:50:43;;;;;;;6.10;2.40;;;21.90;44.80;;;;;;4997163;28;20457;-63
2022/10/15 12:53:27;;;;;;;2.20;1.70;;;21.90;44.80;;;;;;5000564;28;20498;-62
2022/10/15 12:56:19;;;;;;;2.00;1.80;;;21.90;44.80;;;;;;5013953;28;20233;-64
2022/10/15 12:59:03;;;;;;;2.77;2.37;;;21.90;44.80;;;;;;5005287;28;20451;-63
2022/10/15 13:01:41;;;;;;;2.63;1.60;;;21.90;44.80;;;;;;5018687;28;20603;-64
2022/10/15 13:04:07;;;;;;;2.20;1.93;;;21.90;44.90;;;;;;5006425;28;20450;-62
2022/10/15 13:06:35;;;;;;;4.70;2.33;;;21.90;44.90;;;;;;5015269;28;20914;-62